createdAt,value
2023-05-20T00:00:33.464Z,3.13
2023-05-20T00:02:37.864Z,2.80
2023-05-20T00:04:42.045Z,5.38
2023-05-20T00:06:45.237Z,3.28
2023-05-20T00:08:48.185Z,2.50
2023-05-20T00:10:51.090Z,3.78
2023-05-20T00:12:53.999Z,2.85
2023-05-20T00:14:57.111Z,3.20
2023-05-20T00:17:00.086Z,2.63
2023-05-20T00:19:04.600Z,2.80
2023-05-20T00:21:07.581Z,2.83
2023-05-20T00:23:10.438Z,2.92
2023-05-20T00:25:14.695Z,4.93
2023-05-20T00:27:17.975Z,3.08
2023-05-20T00:29:23.453Z,3.72
2023-05-20T00:31:26.362Z,3.72
2023-05-20T00:33:29.151Z,4.90
2023-05-20T00:35:33.512Z,4.55
2023-05-20T00:37:36.571Z,2.90
2023-05-20T00:39:39.554Z,3.03
2023-05-20T00:41:42.355Z,2.83
2023-05-20T00:43:45.260Z,3.92
2023-05-20T00:45:48.711Z,4.07
2023-05-20T00:47:51.599Z,4.00
2023-05-20T00:49:54.697Z,5.30
2023-05-20T00:51:59.062Z,3.03
2023-05-20T00:54:02.189Z,6.07
2023-05-20T00:56:06.260Z,3.37
2023-05-20T00:58:09.489Z,3.57
2023-05-20T01:00:13.736Z,3.35
2023-05-20T01:02:16.934Z,2.90
2023-05-20T01:04:19.781Z,3.83
2023-05-20T01:06:22.687Z,2.90
2023-05-20T01:08:28.955Z,4.50
2023-05-20T01:10:33.491Z,3.08
2023-05-20T01:12:40.299Z,3.27
2023-05-20T01:14:49.246Z,3.93
2023-05-20T01:16:53.782Z,2.95
2023-05-20T01:19:02.480Z,3.57
2023-05-20T01:21:09.045Z,3.50
2023-05-20T01:23:13.277Z,3.40
2023-05-20T01:25:16.191Z,4.27
2023-05-20T01:27:20.687Z,3.60
2023-05-20T01:29:23.864Z,3.87
2023-05-20T01:31:32.969Z,3.67
2023-05-20T01:33:38.475Z,7.55
2023-05-20T01:35:42.808Z,7.00
2023-05-20T01:37:46.465Z,3.33
2023-05-20T01:39:51.561Z,4.53
2023-05-20T01:41:55.080Z,4.77
2023-05-20T01:43:58.512Z,4.00
2023-05-20T01:46:02.746Z,3.40
2023-05-20T01:48:06.316Z,6.90
2023-05-20T01:50:10.041Z,10.43
2023-05-20T01:52:12.937Z,5.00
2023-05-20T01:54:16.021Z,4.53
2023-05-20T01:56:22.089Z,3.67
2023-05-20T01:58:24.950Z,5.33
2023-05-20T02:00:27.858Z,3.53
2023-05-20T02:02:31.147Z,3.93
2023-05-20T02:04:34.099Z,5.90
2023-05-20T02:06:37.045Z,3.57
2023-05-20T02:08:40.286Z,6.70
2023-05-20T02:10:43.208Z,3.70
2023-05-20T02:12:49.314Z,5.27
2023-05-20T02:14:52.327Z,3.47
2023-05-20T02:16:55.441Z,4.53
2023-05-20T02:18:58.633Z,4.97
2023-05-20T02:21:03.796Z,4.00
2023-05-20T02:23:06.815Z,4.03
2023-05-20T02:25:14.517Z,4.20
2023-05-20T02:27:17.562Z,4.03
2023-05-20T02:29:23.042Z,4.13
2023-05-20T02:31:25.884Z,3.73
2023-05-20T02:33:29.166Z,3.90
2023-05-20T02:35:32.313Z,4.67
2023-05-20T02:37:35.405Z,4.07
2023-05-20T02:39:38.239Z,7.40
2023-05-20T02:41:41.079Z,3.93
2023-05-20T02:43:45.049Z,6.73
2023-05-20T02:45:49.375Z,6.07
2023-05-20T02:47:52.389Z,4.30
2023-05-20T02:49:55.582Z,4.90
2023-05-20T02:51:58.860Z,5.20
2023-05-20T02:54:01.815Z,5.40
2023-05-20T02:56:05.822Z,4.17
2023-05-20T02:58:08.692Z,6.70
2023-05-20T03:00:13.684Z,4.70
2023-05-20T03:02:17.975Z,5.73
2023-05-20T03:04:21.626Z,4.87
2023-05-20T03:06:24.762Z,6.53
2023-05-20T03:08:27.684Z,5.67
2023-05-20T03:10:30.482Z,4.23
2023-05-20T03:12:33.356Z,7.55
2023-05-20T03:14:36.128Z,5.03
2023-05-20T03:16:39.292Z,5.27
2023-05-20T03:18:43.572Z,5.47
2023-05-20T03:20:47.735Z,4.40
2023-05-20T03:22:50.608Z,5.53
2023-05-20T03:24:53.603Z,4.23
2023-05-20T03:26:56.824Z,4.20
2023-05-20T03:28:59.759Z,4.67
2023-05-20T03:31:04.361Z,4.13
2023-05-20T03:33:08.506Z,5.67
2023-05-20T03:35:12.852Z,4.27
2023-05-20T03:37:15.995Z,4.53
2023-05-20T03:39:18.887Z,5.57
2023-05-20T03:41:22.343Z,4.70
2023-05-20T03:43:25.629Z,8.60
2023-05-20T03:45:28.700Z,4.77
2023-05-20T03:47:31.535Z,6.83
2023-05-20T03:49:34.452Z,5.67
2023-05-20T03:51:38.733Z,5.60
2023-05-20T03:53:41.611Z,5.60
2023-05-20T03:55:44.707Z,4.87
2023-05-20T03:57:47.615Z,5.20
2023-05-20T03:59:51.272Z,4.53
2023-05-20T04:01:54.329Z,5.97
2023-05-20T04:03:57.409Z,6.33
2023-05-20T04:06:00.372Z,5.07
2023-05-20T04:08:05.730Z,5.95
2023-05-20T04:10:09.676Z,6.50
2023-05-20T04:12:13.825Z,5.43
2023-05-20T04:14:16.782Z,8.40
2023-05-20T04:16:19.910Z,4.78
2023-05-20T04:18:22.890Z,4.80
2023-05-20T04:20:25.996Z,4.50
2023-05-20T04:22:30.319Z,4.53
2023-05-20T04:24:34.474Z,4.97
2023-05-20T04:26:37.405Z,6.17
2023-05-20T04:28:42.167Z,6.20
2023-05-20T04:30:46.201Z,5.82
2023-05-20T04:32:50.775Z,6.47
2023-05-20T04:34:56.183Z,4.30
2023-05-20T04:37:00.703Z,5.50
2023-05-20T04:39:04.946Z,4.70
2023-05-20T04:41:09.757Z,4.97
2023-05-20T04:43:15.008Z,4.50
2023-05-20T04:45:19.802Z,4.97
2023-05-20T04:47:22.708Z,5.70
2023-05-20T04:49:26.431Z,5.05
2023-05-20T04:51:30.465Z,5.18
2023-05-20T04:53:33.843Z,6.28
2023-05-20T04:55:37.404Z,5.18
2023-05-20T04:57:42.715Z,7.32
2023-05-20T04:59:48.491Z,5.18
2023-05-20T05:01:51.598Z,5.45
2023-05-20T05:03:54.754Z,5.82
2023-05-20T05:05:58.291Z,5.10
2023-05-20T05:08:01.223Z,5.20
2023-05-20T05:10:04.326Z,4.68
2023-05-20T05:12:07.660Z,5.53
2023-05-20T05:14:11.866Z,6.75
2023-05-20T05:16:14.786Z,6.00
2023-05-20T05:18:18.564Z,8.03
2023-05-20T05:20:22.015Z,4.95
2023-05-20T05:22:24.977Z,5.78
2023-05-20T05:24:27.970Z,5.25
2023-05-20T05:26:30.873Z,6.47
2023-05-20T05:28:34.122Z,6.82
2023-05-20T05:30:38.414Z,6.05
2023-05-20T05:32:41.597Z,5.68
2023-05-20T05:34:45.224Z,5.55
2023-05-20T05:36:48.090Z,5.63
2023-05-20T05:38:50.959Z,6.97
2023-05-20T05:40:54.496Z,6.05
2023-05-20T05:42:57.441Z,8.23
2023-05-20T05:45:00.422Z,7.05
2023-05-20T05:47:06.082Z,7.85
2023-05-20T05:49:09.065Z,5.93
2023-05-20T05:51:12.190Z,7.07
2023-05-20T05:53:15.236Z,5.82
2023-05-20T05:55:19.213Z,5.80
2023-05-20T05:57:28.357Z,6.43
2023-05-20T05:59:31.254Z,6.70
2023-05-20T06:01:34.206Z,6.05
2023-05-20T06:03:38.690Z,7.03
2023-05-20T06:05:41.691Z,5.65
2023-05-20T06:07:44.906Z,6.60
2023-05-20T06:09:47.826Z,6.25
2023-05-20T06:11:50.793Z,7.22
2023-05-20T06:13:53.760Z,6.25
2023-05-20T06:15:56.597Z,5.85
2023-05-20T06:17:59.497Z,8.00
2023-05-20T06:20:07.555Z,7.15
2023-05-20T06:22:10.540Z,6.72
2023-05-20T06:24:13.678Z,6.68
2023-05-20T06:26:19.719Z,7.18
2023-05-20T06:28:22.693Z,8.73
2023-05-20T06:30:25.830Z,6.70
2023-05-20T06:32:29.185Z,6.97
2023-05-20T06:34:32.017Z,6.90
2023-05-20T06:36:36.272Z,7.82
2023-05-20T06:38:39.303Z,8.80
2023-05-20T06:40:42.235Z,7.50
2023-05-20T06:42:47.575Z,7.28
2023-05-20T06:44:50.503Z,7.28
2023-05-20T06:46:53.452Z,7.72
2023-05-20T06:48:56.352Z,9.70
2023-05-20T06:50:59.504Z,8.45
2023-05-20T06:53:05.980Z,7.85
2023-05-20T06:55:11.935Z,8.77
2023-05-20T06:57:17.279Z,7.78
2023-05-20T06:59:20.160Z,8.82
2023-05-20T07:01:23.468Z,8.32
2023-05-20T07:03:26.841Z,8.63
2023-05-20T07:05:30.043Z,7.95
2023-05-20T07:07:32.998Z,8.25
2023-05-20T07:09:37.448Z,8.48
2023-05-20T07:11:40.549Z,9.15
2023-05-20T07:13:43.323Z,10.68
2023-05-20T07:15:47.708Z,8.13
2023-05-20T07:18:00.053Z,8.85
2023-05-20T07:20:04.100Z,8.68
2023-05-20T07:22:09.103Z,9.65
2023-05-20T07:24:12.107Z,8.40
2023-05-20T07:26:16.409Z,8.13
2023-05-20T07:28:21.078Z,9.05
2023-05-20T07:30:24.260Z,8.48
2023-05-20T07:32:30.655Z,8.35
2023-05-20T07:34:33.931Z,8.30
2023-05-20T07:36:41.071Z,8.50
2023-05-20T07:38:56.489Z,7.80
2023-05-20T07:41:05.416Z,8.85
2023-05-20T07:43:10.295Z,8.00
2023-05-20T07:45:15.731Z,8.32
2023-05-20T07:47:18.720Z,7.75
2023-05-20T07:49:21.522Z,7.82
2023-05-20T07:51:24.871Z,7.95
2023-05-20T07:53:28.000Z,7.72
2023-05-20T07:55:31.168Z,8.13
2023-05-20T07:57:34.058Z,7.50
2023-05-20T07:59:38.524Z,9.15
2023-05-20T08:01:42.485Z,7.97
2023-05-20T08:03:48.415Z,7.88
2023-05-20T08:05:51.370Z,8.27
2023-05-20T08:07:54.597Z,8.68
2023-05-20T08:10:17.888Z,9.07
2023-05-20T08:12:20.901Z,10.75
2023-05-20T08:14:24.123Z,9.40
2023-05-20T08:16:28.949Z,8.32
2023-05-20T08:18:34.759Z,9.57
2023-05-20T08:20:38.001Z,8.70
2023-05-20T08:22:41.294Z,8.55
2023-05-20T08:24:44.315Z,8.38
2023-05-20T08:26:49.922Z,9.10
2023-05-20T08:28:55.668Z,9.13
2023-05-20T08:30:59.112Z,8.68
2023-05-20T08:33:03.621Z,9.10
2023-05-20T08:35:07.882Z,8.80
2023-05-20T08:37:11.694Z,10.05
2023-05-20T08:39:15.155Z,8.73
2023-05-20T08:41:18.111Z,8.90
2023-05-20T08:43:21.533Z,9.80
2023-05-20T08:45:27.643Z,8.82
2023-05-20T08:47:30.521Z,8.45
2023-05-20T08:49:35.844Z,8.82
2023-05-20T08:51:40.102Z,8.63
2023-05-20T08:53:43.282Z,9.07
2023-05-20T08:55:53.492Z,9.35
2023-05-20T08:57:57.852Z,9.13
2023-05-20T09:00:01.195Z,8.35
2023-05-20T09:02:04.241Z,8.30
2023-05-20T09:04:07.895Z,8.32
2023-05-20T09:06:20.109Z,14.60
2023-05-20T09:08:27.086Z,9.73
2023-05-20T09:10:30.186Z,8.70
2023-05-20T09:12:34.991Z,8.15
2023-05-20T09:14:40.881Z,8.00
2023-05-20T09:16:44.369Z,7.38
2023-05-20T09:18:48.013Z,8.48
2023-05-20T09:20:52.992Z,7.97
2023-05-20T09:23:01.435Z,8.55
2023-05-20T09:25:05.495Z,7.53
2023-05-20T09:27:09.634Z,8.13
2023-05-20T09:29:15.708Z,8.63
2023-05-20T09:31:18.659Z,9.02
2023-05-20T09:33:22.181Z,8.10
2023-05-20T09:35:26.132Z,7.95
2023-05-20T09:37:31.136Z,9.35
2023-05-20T09:39:48.457Z,8.93
2023-05-20T09:41:57.501Z,8.50
2023-05-20T09:44:04.005Z,10.20
2023-05-20T09:46:08.197Z,8.25
2023-05-20T09:48:13.097Z,10.23
2023-05-20T09:50:17.054Z,9.07
2023-05-20T09:52:21.438Z,7.93
2023-05-20T09:54:26.825Z,9.20
2023-05-20T09:56:31.779Z,8.30
2023-05-20T09:58:37.306Z,8.88
2023-05-20T10:00:40.701Z,7.78
2023-05-20T10:02:49.129Z,8.20
2023-05-20T10:04:55.709Z,8.63
2023-05-20T10:07:27.608Z,7.68
2023-05-20T10:09:51.470Z,7.00
2023-05-20T10:12:08.686Z,7.45
2023-05-20T10:14:30.204Z,7.13
2023-05-20T10:16:44.258Z,8.30
2023-05-20T10:18:59.725Z,7.45
2023-05-20T10:21:02.563Z,8.30
2023-05-20T10:23:05.802Z,7.55
2023-05-20T10:25:12.930Z,8.88
2023-05-20T10:27:20.166Z,7.85
2023-05-20T10:29:23.561Z,8.27
2023-05-20T10:31:27.476Z,7.35
2023-05-20T10:33:31.288Z,6.93
2023-05-20T10:35:34.341Z,6.57
2023-05-20T10:37:43.631Z,12.15
2023-05-20T10:39:47.805Z,6.88
2023-05-20T10:41:50.668Z,8.25
2023-05-20T10:44:06.857Z,7.72
2023-05-20T10:46:32.527Z,7.75
2023-05-20T10:48:44.206Z,7.72
2023-05-20T10:50:47.502Z,7.95
2023-05-20T10:52:50.407Z,6.90
2023-05-20T10:54:57.674Z,7.95
2023-05-20T10:57:00.605Z,7.53
2023-05-20T10:59:05.585Z,8.88
2023-05-20T11:01:08.582Z,6.95
2023-05-20T11:03:13.113Z,7.80
2023-05-20T11:05:18.528Z,7.88
2023-05-20T11:07:29.957Z,7.70
2023-05-20T11:09:33.993Z,6.63
2023-05-20T11:11:38.727Z,8.20
2023-05-20T11:13:42.026Z,7.85
2023-05-20T11:15:46.257Z,8.15
2023-05-20T11:17:56.238Z,8.65
2023-05-20T11:20:00.755Z,9.20
2023-05-20T11:22:03.647Z,8.60
2023-05-20T11:24:06.962Z,8.63
2023-05-20T11:26:09.983Z,10.25
2023-05-20T11:28:14.755Z,9.10
2023-05-20T11:30:18.473Z,9.20
2023-05-20T11:32:22.626Z,10.00
2023-05-20T11:34:26.834Z,9.02
2023-05-20T11:36:30.964Z,9.25
2023-05-20T11:38:33.839Z,8.52
2023-05-20T11:40:49.970Z,8.70
2023-05-20T11:42:56.124Z,9.35
2023-05-20T11:45:01.427Z,9.48
2023-05-20T11:47:04.901Z,9.82
2023-05-20T11:49:09.395Z,8.35
2023-05-20T11:51:15.623Z,9.95
2023-05-20T11:53:19.669Z,9.15
2023-05-20T11:55:22.562Z,10.25
2023-05-20T11:57:25.442Z,9.68
2023-05-20T11:59:28.454Z,9.80
2023-05-20T12:01:33.959Z,10.18
2023-05-20T12:03:37.889Z,9.25
2023-05-20T12:05:42.631Z,9.88
2023-05-20T12:07:45.714Z,10.75
2023-05-20T12:09:48.804Z,12.80
2023-05-20T12:11:51.632Z,11.52
2023-05-20T12:13:54.717Z,10.40
2023-05-20T12:15:59.701Z,10.60
2023-05-20T12:18:02.761Z,10.45
2023-05-20T12:20:07.427Z,10.45
2023-05-20T12:22:12.225Z,10.27
2023-05-20T12:24:15.112Z,10.48
2023-05-20T12:26:18.031Z,11.15
2023-05-20T12:28:21.030Z,9.45
2023-05-20T12:30:25.043Z,9.95
2023-05-20T12:32:28.042Z,9.27
2023-05-20T12:34:31.323Z,10.30
2023-05-20T12:36:34.811Z,8.88
2023-05-20T12:38:39.347Z,9.77
2023-05-20T12:40:42.284Z,10.07
2023-05-20T12:42:46.341Z,9.40
2023-05-20T12:44:49.579Z,9.18
2023-05-20T12:46:52.436Z,9.27
2023-05-20T12:48:55.389Z,9.10
2023-05-20T12:50:58.454Z,9.13
2023-05-20T12:53:01.314Z,8.63
2023-05-20T12:55:13.595Z,9.15
2023-05-20T12:57:18.063Z,7.97
2023-05-20T12:59:23.025Z,8.75
2023-05-20T13:01:25.924Z,9.48
2023-05-20T13:03:29.006Z,8.95
2023-05-20T13:05:32.052Z,9.02
2023-05-20T13:07:35.012Z,8.73
2023-05-20T13:09:50.054Z,9.02
2023-05-20T13:11:54.563Z,8.35
2023-05-20T13:13:58.163Z,8.70
2023-05-20T13:16:01.049Z,8.90
2023-05-20T13:18:06.690Z,8.73
2023-05-20T13:20:10.997Z,9.65
2023-05-20T13:22:14.044Z,8.57
2023-05-20T13:24:25.433Z,8.65
2023-05-20T13:26:28.759Z,9.18
2023-05-20T13:28:36.654Z,8.43
2023-05-20T13:30:39.964Z,8.30
2023-05-20T13:32:43.361Z,7.90
2023-05-20T13:34:46.547Z,8.57
2023-05-20T13:36:52.088Z,9.00
2023-05-20T13:38:55.270Z,8.20
2023-05-20T13:40:59.486Z,7.97
2023-05-20T13:43:04.207Z,8.48
2023-05-20T13:45:09.894Z,8.50
2023-05-20T13:47:17.337Z,8.02
2023-05-20T13:49:20.415Z,8.15
2023-05-20T13:51:23.441Z,8.82
2023-05-20T13:53:26.261Z,9.93
2023-05-20T13:55:29.326Z,8.65
2023-05-20T13:57:32.576Z,7.85
2023-05-20T13:59:35.813Z,8.13
2023-05-20T14:01:44.783Z,7.45
2023-05-20T14:03:49.992Z,7.75
2023-05-20T14:05:56.034Z,7.47
2023-05-20T14:07:58.997Z,8.13
2023-05-20T14:10:01.807Z,9.40
2023-05-20T14:12:07.604Z,8.65
2023-05-20T14:14:10.860Z,8.15
2023-05-20T14:16:18.928Z,7.82
2023-05-20T14:18:26.315Z,7.65
2023-05-20T14:20:29.433Z,8.93
2023-05-20T14:22:32.315Z,7.65
2023-05-20T14:24:35.524Z,7.75
2023-05-20T14:26:39.262Z,8.32
2023-05-20T14:28:43.638Z,8.23
2023-05-20T14:30:46.530Z,9.35
2023-05-20T14:32:49.430Z,7.45
2023-05-20T14:34:54.602Z,7.55
2023-05-20T14:36:57.809Z,7.03
2023-05-20T14:39:00.752Z,7.63
2023-05-20T14:41:03.726Z,7.07
2023-05-20T14:43:06.542Z,7.60
2023-05-20T14:45:10.770Z,7.75
2023-05-20T14:47:16.703Z,7.93
2023-05-20T14:49:19.627Z,8.45
2023-05-20T14:51:23.760Z,9.23
2023-05-20T14:53:26.610Z,9.00
2023-05-20T14:55:29.606Z,9.18
2023-05-20T14:57:34.617Z,9.65
2023-05-20T14:59:37.614Z,9.82
2023-05-20T15:01:42.636Z,8.23
2023-05-20T15:03:45.903Z,8.48
2023-05-20T15:05:48.783Z,9.07
2023-05-20T15:07:53.123Z,8.35
2023-05-20T15:09:56.227Z,8.27
2023-05-20T15:11:59.141Z,7.80
2023-05-20T15:14:02.181Z,8.10
2023-05-20T15:16:05.751Z,8.05
2023-05-20T15:18:08.662Z,7.82
2023-05-20T15:20:12.219Z,8.50
2023-05-20T15:22:15.066Z,8.05
2023-05-20T15:24:19.342Z,8.52
2023-05-20T15:26:22.621Z,9.80
2023-05-20T15:28:25.496Z,8.32
2023-05-20T15:30:28.353Z,8.30
2023-05-20T15:32:31.204Z,8.20
2023-05-20T15:34:34.655Z,8.07
2023-05-20T15:36:37.555Z,8.05
2023-05-20T15:38:40.610Z,8.27
2023-05-20T15:40:45.043Z,8.30
2023-05-20T15:42:47.942Z,8.52
2023-05-20T15:44:50.865Z,8.60
2023-05-20T15:46:53.613Z,10.13
2023-05-20T15:48:57.881Z,8.52
2023-05-20T15:51:00.906Z,8.43
2023-05-20T15:53:06.852Z,8.20
2023-05-20T15:55:10.892Z,7.78
2023-05-20T15:57:15.120Z,8.35
2023-05-20T15:59:17.903Z,8.73
2023-05-20T16:01:22.170Z,8.90
2023-05-20T16:03:25.072Z,8.93
2023-05-20T16:05:28.025Z,9.18
2023-05-20T16:07:32.123Z,9.07
2023-05-20T16:09:35.445Z,8.73
2023-05-20T16:11:38.274Z,8.82
2023-05-20T16:13:42.562Z,9.45
2023-05-20T16:15:45.618Z,11.98
2023-05-20T16:17:48.533Z,9.75
2023-05-20T16:19:51.448Z,10.95
2023-05-20T16:21:54.369Z,9.93
2023-05-20T16:23:57.193Z,9.55
2023-05-20T16:26:00.185Z,10.32
2023-05-20T16:28:03.080Z,10.55
2023-05-20T16:30:30.347Z,10.45
2023-05-20T16:32:33.209Z,10.80
2023-05-20T16:34:36.022Z,11.63
2023-05-20T16:36:38.966Z,10.55
2023-05-20T16:38:41.822Z,10.32
2023-05-20T16:40:44.649Z,9.95
2023-05-20T16:42:47.748Z,10.02
2023-05-20T16:44:52.436Z,13.05
2023-05-20T16:46:56.501Z,13.63
2023-05-20T16:48:59.317Z,12.88
2023-05-20T16:51:02.376Z,13.43
2023-05-20T16:53:05.140Z,14.52
2023-05-20T16:55:08.750Z,12.48
2023-05-20T16:57:13.945Z,13.10
2023-05-20T16:59:16.844Z,13.57
2023-05-20T17:01:20.077Z,11.82
2023-05-20T17:03:24.382Z,13.23
2023-05-20T17:05:27.334Z,12.98
2023-05-20T17:07:30.115Z,11.73
2023-05-20T17:09:32.970Z,12.60
2023-05-20T17:11:36.110Z,32.72
2023-05-20T17:13:41.429Z,13.35
2023-05-20T17:15:46.608Z,17.45
2023-05-20T17:17:49.446Z,16.70
2023-05-20T17:19:54.636Z,13.52
2023-05-20T17:21:57.413Z,12.93
2023-05-20T17:24:00.229Z,12.80
2023-05-20T17:26:03.109Z,12.77
2023-05-20T17:28:06.109Z,11.95
2023-05-20T17:30:09.691Z,13.20
2023-05-20T17:32:13.207Z,12.07
2023-05-20T17:34:16.620Z,12.07
2023-05-20T17:36:22.362Z,12.10
2023-05-20T17:38:26.338Z,11.85
2023-05-20T17:40:29.345Z,12.05
2023-05-20T17:42:32.153Z,11.43
2023-05-20T17:44:34.981Z,12.15
2023-05-20T17:46:38.106Z,12.77
2023-05-20T17:48:41.438Z,12.73
2023-05-20T17:50:44.757Z,12.52
2023-05-20T17:52:48.905Z,14.00
2023-05-20T17:54:51.712Z,17.05
2023-05-20T17:56:54.465Z,13.82
2023-05-20T17:58:57.319Z,12.82
2023-05-20T18:01:00.167Z,12.90
2023-05-20T18:03:03.092Z,13.50
2023-05-20T18:05:06.808Z,13.45
2023-05-20T18:07:09.762Z,13.90
2023-05-20T18:09:13.972Z,14.48
2023-05-20T18:11:16.752Z,14.07
2023-05-20T18:13:19.558Z,13.27
2023-05-20T18:15:22.788Z,14.70
2023-05-20T18:17:25.760Z,13.85
2023-05-20T18:19:28.864Z,14.60
2023-05-20T18:21:31.723Z,13.85
2023-05-20T18:23:34.595Z,14.13
2023-05-20T18:25:40.519Z,14.90
2023-05-20T18:27:45.369Z,14.68
2023-05-20T18:29:49.295Z,14.82
2023-05-20T18:31:52.086Z,13.45
2023-05-20T18:33:54.886Z,14.90
2023-05-20T18:35:57.837Z,14.35
2023-05-20T18:38:00.918Z,14.40
2023-05-20T18:40:06.232Z,15.07
2023-05-20T18:42:10.419Z,15.77
2023-05-20T18:44:13.298Z,14.93
2023-05-20T18:46:16.617Z,15.30
2023-05-20T18:48:26.573Z,20.88
2023-05-20T18:50:30.079Z,15.85
2023-05-20T18:52:32.910Z,14.75
2023-05-20T18:54:35.733Z,16.23
2023-05-20T18:56:38.660Z,16.10
2023-05-20T18:58:42.863Z,15.60
2023-05-20T19:00:45.934Z,15.93
2023-05-20T19:02:48.782Z,15.85
2023-05-20T19:04:51.767Z,16.50
2023-05-20T19:06:54.694Z,17.10
2023-05-20T19:08:57.843Z,14.95
2023-05-20T19:11:00.796Z,16.05
2023-05-20T19:13:03.593Z,16.65
2023-05-20T19:15:09.567Z,17.13
2023-05-20T19:17:12.860Z,16.13
2023-05-20T19:19:16.101Z,17.33
2023-05-20T19:21:19.072Z,16.23
2023-05-20T19:23:22.022Z,20.17
2023-05-20T19:25:25.345Z,16.98
2023-05-20T19:27:28.340Z,17.20
2023-05-20T19:29:31.160Z,17.05
2023-05-20T19:31:35.434Z,17.02
2023-05-20T19:33:39.937Z,16.45
2023-05-20T19:35:42.875Z,18.45
2023-05-20T19:37:45.881Z,17.80
2023-05-20T19:39:48.741Z,18.95
2023-05-20T19:41:52.889Z,19.23
2023-05-20T19:43:55.761Z,17.58
2023-05-20T19:45:58.749Z,17.58
2023-05-20T19:48:04.695Z,17.27
2023-05-20T19:50:08.256Z,16.25
2023-05-20T19:52:11.047Z,17.75
2023-05-20T19:54:14.070Z,17.55
2023-05-20T19:56:19.589Z,17.10
2023-05-20T19:58:22.730Z,16.95
2023-05-20T20:00:25.582Z,17.35
2023-05-20T20:02:28.526Z,17.75
2023-05-20T20:04:32.784Z,16.73
2023-05-20T20:06:35.724Z,17.92
2023-05-20T20:08:39.390Z,17.75
2023-05-20T20:10:42.185Z,18.70
2023-05-20T20:12:44.953Z,19.17
2023-05-20T20:14:48.157Z,18.08
2023-05-20T20:16:51.097Z,18.80
2023-05-20T20:18:54.036Z,17.60
2023-05-20T20:20:59.603Z,18.88
2023-05-20T20:23:03.444Z,19.05
2023-05-20T20:25:07.341Z,18.60
2023-05-20T20:27:10.473Z,17.63
2023-05-20T20:29:13.284Z,19.13
2023-05-20T20:31:18.718Z,17.75
2023-05-20T20:33:21.720Z,18.40
2023-05-20T20:35:24.575Z,18.58
2023-05-20T20:37:28.698Z,18.92
2023-05-20T20:39:31.669Z,17.63
2023-05-20T20:41:34.734Z,18.15
2023-05-20T20:43:38.044Z,17.42
2023-05-20T20:45:41.904Z,18.42
2023-05-20T20:47:45.185Z,19.27
2023-05-20T20:49:48.180Z,19.65
2023-05-20T20:51:51.780Z,19.02
2023-05-20T20:53:56.124Z,18.77
2023-05-20T20:55:58.944Z,19.08
2023-05-20T20:58:03.288Z,20.15
2023-05-20T21:00:15.797Z,20.75
2023-05-20T21:02:18.662Z,18.45
2023-05-20T21:04:21.681Z,18.88
2023-05-20T21:06:24.642Z,22.42
2023-05-20T21:08:27.776Z,18.95
2023-05-20T21:10:33.622Z,19.00
2023-05-20T21:12:36.497Z,18.17
2023-05-20T21:14:39.313Z,18.95
2023-05-20T21:16:44.508Z,18.48
2023-05-20T21:18:47.626Z,18.25
2023-05-20T21:20:50.995Z,18.20
2023-05-20T21:22:53.842Z,19.05
2023-05-20T21:24:56.682Z,22.73
2023-05-20T21:27:00.852Z,17.95
2023-05-20T21:29:03.720Z,19.27
2023-05-20T21:31:06.668Z,18.60
2023-05-20T21:33:09.763Z,19.45
2023-05-20T21:35:13.283Z,18.10
2023-05-20T21:37:16.347Z,17.83
2023-05-20T21:39:19.317Z,18.25
2023-05-20T21:41:23.481Z,18.80
2023-05-20T21:43:27.964Z,18.67
2023-05-20T21:45:30.982Z,18.70
2023-05-20T21:47:33.910Z,18.25
2023-05-20T21:49:36.804Z,17.17
2023-05-20T21:51:39.794Z,17.60
2023-05-20T21:53:49.308Z,20.40
2023-05-20T21:55:54.164Z,17.15
2023-05-20T21:57:57.209Z,18.70
2023-05-20T22:00:01.491Z,17.85
2023-05-20T22:02:04.634Z,17.58
2023-05-20T22:04:11.747Z,21.17
2023-05-20T22:06:16.516Z,17.50
2023-05-20T22:08:19.645Z,18.95
2023-05-20T22:10:23.546Z,16.90
2023-05-20T22:12:27.775Z,17.77
2023-05-20T22:14:30.892Z,17.55
2023-05-20T22:16:35.434Z,20.05
2023-05-20T22:18:39.672Z,17.20
2023-05-20T22:20:45.976Z,17.90
2023-05-20T22:22:49.178Z,18.27
2023-05-20T22:24:55.594Z,18.23
2023-05-20T22:26:58.717Z,17.63
2023-05-20T22:29:01.662Z,20.55
2023-05-20T22:31:05.181Z,17.65
2023-05-20T22:33:09.610Z,17.75
2023-05-20T22:35:13.783Z,19.17
2023-05-20T22:37:17.010Z,19.80
2023-05-20T22:39:20.783Z,19.55
2023-05-20T22:41:24.037Z,17.98
2023-05-20T22:43:28.466Z,18.92
2023-05-20T22:45:31.433Z,17.55
2023-05-20T22:47:34.720Z,18.55
2023-05-20T22:49:40.448Z,17.63
2023-05-20T22:51:43.569Z,17.60
2023-05-20T22:53:46.425Z,16.98
2023-05-20T22:55:49.435Z,21.15
2023-05-20T22:57:52.332Z,16.63
2023-05-20T22:59:55.459Z,18.23
2023-05-20T23:01:59.251Z,18.30
2023-05-20T23:04:02.562Z,17.02
2023-05-20T23:06:07.440Z,16.88
2023-05-20T23:08:10.482Z,16.15
2023-05-20T23:10:13.711Z,19.27
2023-05-20T23:12:18.128Z,16.75
2023-05-20T23:14:21.359Z,17.17
2023-05-20T23:16:26.232Z,17.10
2023-05-20T23:18:29.659Z,18.40
2023-05-20T23:20:32.553Z,16.60
2023-05-20T23:22:36.722Z,17.65
2023-05-20T23:24:39.583Z,18.23
2023-05-20T23:26:42.951Z,17.17
2023-05-20T23:28:48.828Z,18.48
2023-05-20T23:30:51.935Z,16.58
2023-05-20T23:32:55.415Z,17.55
2023-05-20T23:34:58.409Z,17.30
2023-05-20T23:37:01.651Z,16.77
2023-05-20T23:39:06.082Z,16.90
2023-05-20T23:41:08.939Z,18.30
2023-05-20T23:43:11.909Z,16.67
2023-05-20T23:45:14.910Z,17.45
2023-05-20T23:47:18.595Z,17.42
2023-05-20T23:49:24.372Z,18.15
2023-05-20T23:51:28.013Z,17.25
2023-05-20T23:53:30.944Z,22.13
2023-05-20T23:55:35.729Z,17.70
2023-05-20T23:57:39.049Z,18.20
2023-05-20T23:59:43.239Z,18.02
